createdAt,value
2022-08-10T00:01:52.130Z,-56
2022-08-10T00:04:21.112Z,-58
2022-08-10T00:06:48.300Z,-58
2022-08-10T00:09:14.883Z,-58
2022-08-10T00:11:41.477Z,-58
2022-08-10T00:14:08.107Z,-59
2022-08-10T00:16:34.725Z,-58
2022-08-10T00:19:01.324Z,-59
2022-08-10T00:21:28.130Z,-58
2022-08-10T00:23:54.916Z,-59
2022-08-10T00:26:22.052Z,-59
2022-08-10T00:28:48.869Z,-59
2022-08-10T00:31:15.498Z,-59
2022-08-10T00:33:42.555Z,-58
2022-08-10T00:36:09.296Z,-59
2022-08-10T00:38:37.175Z,-59
2022-08-10T00:41:04.150Z,-58
2022-08-10T00:43:30.955Z,-59
2022-08-10T00:45:58.876Z,-59
2022-08-10T00:48:28.319Z,-59
2022-08-10T00:50:55.274Z,-58
2022-08-10T00:53:22.188Z,-58
2022-08-10T00:56:39.784Z,-59
2022-08-10T00:58:39.382Z,-59
2022-08-10T01:01:06.148Z,-59
2022-08-10T01:04:57.285Z,-59
2022-08-10T01:06:45.624Z,-59
2022-08-10T01:09:35.180Z,-58
2022-08-10T01:12:39.549Z,-58
2022-08-10T01:15:01.685Z,-59
2022-08-10T01:17:56.806Z,-58
2022-08-10T01:20:52.036Z,-58
2022-08-10T01:23:46.975Z,-58
2022-08-10T01:26:32.362Z,-58
2022-08-10T01:29:33.245Z,-59
2022-08-10T01:32:05.141Z,-59
2022-08-10T01:34:42.851Z,-59
2022-08-10T01:37:14.832Z,-59
2022-08-10T01:39:45.449Z,-58
2022-08-10T01:42:16.839Z,-58
2022-08-10T01:44:52.211Z,-58
2022-08-10T01:47:38.620Z,-59
2022-08-10T01:50:12.610Z,-59
2022-08-10T01:52:43.154Z,-59
2022-08-10T01:55:13.402Z,-59
2022-08-10T01:57:42.241Z,-59
2022-08-10T02:00:10.326Z,-58
2022-08-10T02:02:38.114Z,-59
2022-08-10T02:05:27.241Z,-59
2022-08-10T02:07:57.092Z,-59
2022-08-10T02:10:26.119Z,-59
2022-08-10T02:12:56.796Z,-58
2022-08-10T02:15:27.666Z,-58
2022-08-10T02:18:02.064Z,-58
2022-08-10T02:20:36.660Z,-59
2022-08-10T02:23:08.696Z,-59
2022-08-10T02:25:41.123Z,-59
2022-08-10T02:28:12.452Z,-59
2022-08-10T02:30:57.624Z,-59
2022-08-10T02:33:27.263Z,-59
2022-08-10T02:35:56.183Z,-59
2022-08-10T02:38:58.208Z,-59
2022-08-10T02:45:02.253Z,-59
2022-08-10T02:45:26.271Z,-58
2022-08-10T02:48:03.290Z,-59
2022-08-10T02:50:36.953Z,-59
2022-08-10T02:53:55.975Z,-56
2022-08-10T02:56:15.306Z,-59
2022-08-10T02:58:48.786Z,-55
2022-08-10T03:01:21.437Z,-62
2022-08-10T03:03:52.959Z,-59
2022-08-10T03:06:22.908Z,-60
2022-08-10T03:08:52.091Z,-57
2022-08-10T03:12:35.761Z,-54
2022-08-10T03:14:13.304Z,-60
2022-08-10T03:16:41.484Z,-57
2022-08-10T03:20:34.753Z,-61
2022-08-10T03:21:56.063Z,-60
2022-08-10T03:24:32.749Z,-58
2022-08-10T03:27:01.601Z,-60
2022-08-10T03:29:28.767Z,-56
2022-08-10T03:31:55.952Z,-58
2022-08-10T03:34:32.824Z,-59
2022-08-10T03:37:00.744Z,-58
2022-08-10T03:39:27.781Z,-58
2022-08-10T03:41:57.802Z,-59
2022-08-10T03:44:28.637Z,-59
2022-08-10T03:46:59.637Z,-59
2022-08-10T03:49:28.095Z,-58
2022-08-10T03:51:56.692Z,-59
2022-08-10T03:54:24.444Z,-59
2022-08-10T03:56:51.565Z,-59
2022-08-10T03:59:18.303Z,-58
2022-08-10T04:02:45.760Z,-60
2022-08-10T04:04:33.306Z,-58
2022-08-10T04:07:00.684Z,-59
2022-08-10T04:09:53.246Z,-59
2022-08-10T04:13:04.050Z,-59
2022-08-10T04:15:30.527Z,-59
2022-08-10T04:20:44.556Z,-60
2022-08-10T04:23:23.558Z,-60
2022-08-10T04:25:51.295Z,-60
2022-08-10T04:28:18.953Z,-59
2022-08-10T04:30:48.614Z,-60
2022-08-10T04:33:18.702Z,-56
2022-08-10T04:35:47.233Z,-56
2022-08-10T04:38:15.689Z,-57
2022-08-10T04:40:44.525Z,-59
2022-08-10T04:43:13.109Z,-59
2022-08-10T04:45:49.716Z,-58
2022-08-10T04:48:40.615Z,-58
2022-08-10T04:51:18.142Z,-58
2022-08-10T04:54:05.362Z,-59
2022-08-10T04:56:34.954Z,-57
2022-08-10T04:59:01.558Z,-58
2022-08-10T05:02:09.793Z,-58
2022-08-10T05:04:37.204Z,-58
2022-08-10T05:07:02.881Z,-58
2022-08-10T05:09:29.462Z,-57
2022-08-10T05:11:56.114Z,-58
2022-08-10T05:14:23.104Z,-58
2022-08-10T05:16:50.169Z,-58
2022-08-10T05:19:16.735Z,-58
2022-08-10T05:22:03.273Z,-58
2022-08-10T05:24:32.280Z,-58
2022-08-10T05:27:09.522Z,-57
2022-08-10T05:29:37.523Z,-58
2022-08-10T05:32:04.784Z,-58
2022-08-10T05:34:31.419Z,-58
2022-08-10T05:36:58.360Z,-57
2022-08-10T05:39:30.100Z,-57
2022-08-10T05:42:00.942Z,-57
2022-08-10T05:44:28.684Z,-58
2022-08-10T05:46:55.920Z,-58
2022-08-10T05:49:22.576Z,-58
2022-08-10T05:51:49.386Z,-57
2022-08-10T05:54:16.509Z,-57
2022-08-10T05:56:53.423Z,-60
2022-08-10T06:00:32.954Z,-57
2022-08-10T06:02:33.485Z,-57
2022-08-10T06:05:06.526Z,-57
2022-08-10T06:07:37.281Z,-63
2022-08-10T06:10:10.209Z,-59
2022-08-10T06:12:55.753Z,-58
2022-08-10T06:15:52.149Z,-59
2022-08-10T06:18:14.519Z,-58
2022-08-10T06:20:42.219Z,-58
2022-08-10T06:23:11.442Z,-57
2022-08-10T06:26:10.994Z,-58
2022-08-10T06:28:26.548Z,-58
2022-08-10T06:30:54.672Z,-58
2022-08-10T06:33:23.578Z,-60
2022-08-10T06:35:54.150Z,-59
2022-08-10T06:38:22.137Z,-59
2022-08-10T06:40:49.805Z,-58
2022-08-10T06:43:19.659Z,-58
2022-08-10T06:46:07.956Z,-60
2022-08-10T06:48:46.235Z,-65
2022-08-10T06:51:18.199Z,-63
2022-08-10T06:53:53.011Z,-64
2022-08-10T06:56:35.791Z,-60
2022-08-10T06:59:07.782Z,-63
2022-08-10T07:01:51.093Z,-63
2022-08-10T07:04:32.415Z,-63
2022-08-10T07:07:03.364Z,-62
2022-08-10T07:09:32.438Z,-60
2022-08-10T07:12:07.617Z,-59
2022-08-10T07:14:44.987Z,-63
2022-08-10T07:17:17.612Z,-62
2022-08-10T07:19:52.221Z,-61
2022-08-10T07:23:01.737Z,-62
2022-08-10T07:25:12.556Z,-63
2022-08-10T07:28:00.197Z,-63
2022-08-10T07:30:30.587Z,-64
2022-08-10T07:32:58.044Z,-63
2022-08-10T07:35:28.342Z,-63
2022-08-10T07:37:59.902Z,-62
2022-08-10T07:40:31.469Z,-64
2022-08-10T07:43:00.183Z,-63
2022-08-10T07:45:30.593Z,-63
2022-08-10T07:48:07.169Z,-63
2022-08-10T07:50:37.624Z,-61
2022-08-10T07:53:07.618Z,-61
2022-08-10T07:56:01.758Z,-60
2022-08-10T07:58:27.547Z,-60
2022-08-10T08:00:54.912Z,-62
2022-08-10T08:03:28.764Z,-60
2022-08-10T08:06:02.445Z,-60
2022-08-10T08:08:33.498Z,-62
2022-08-10T08:11:01.592Z,-60
2022-08-10T08:13:29.633Z,-63
2022-08-10T08:16:17.189Z,-60
2022-08-10T08:19:03.825Z,-60
2022-08-10T08:24:06.837Z,-62
2022-08-10T08:24:32.654Z,-64
2022-08-10T08:27:05.063Z,-66
2022-08-10T08:29:35.177Z,-64
2022-08-10T08:32:04.728Z,-71
2022-08-10T08:34:38.017Z,-64
2022-08-10T08:37:07.109Z,-64
2022-08-10T08:39:34.179Z,-63
2022-08-10T08:42:10.759Z,-64
2022-08-10T08:45:15.273Z,-62
2022-08-10T08:48:06.791Z,-62
2022-08-10T08:50:59.614Z,-61
2022-08-10T08:54:02.527Z,-65
2022-08-10T08:57:06.291Z,-61
2022-08-10T09:00:07.277Z,-61
2022-08-10T09:02:54.854Z,-63
2022-08-10T09:05:58.571Z,-61
2022-08-10T09:08:41.377Z,-61
2022-08-10T09:11:36.781Z,-59
2022-08-10T09:14:44.490Z,-60
2022-08-10T09:17:35.367Z,-60
2022-08-10T09:20:10.077Z,-63
2022-08-10T09:22:57.148Z,-62
2022-08-10T09:25:34.756Z,-61
2022-08-10T09:28:05.870Z,-64
2022-08-10T09:31:03.657Z,-62
2022-08-10T09:36:19.791Z,-63
2022-08-10T09:36:55.919Z,-64
2022-08-10T09:40:56.693Z,-63
2022-08-10T09:43:01.981Z,-55
2022-08-10T09:45:47.714Z,-56
2022-08-10T09:48:47.547Z,-65
2022-08-10T09:51:44.689Z,-83
2022-08-10T09:54:51.033Z,-85
2022-08-10T09:57:44.189Z,-83
2022-08-10T10:00:17.825Z,-83
2022-08-10T10:03:26.117Z,-83
2022-08-10T10:05:55.596Z,-84
2022-08-10T10:08:30.074Z,-84
2022-08-10T10:11:21.143Z,-84
2022-08-10T10:15:00.136Z,-83
2022-08-10T10:17:54.099Z,-84
2022-08-10T10:20:49.525Z,-84
2022-08-10T10:23:21.972Z,-83
2022-08-10T10:26:19.749Z,-84
2022-08-10T10:31:46.286Z,-83
2022-08-10T10:34:24.571Z,-83
2022-08-10T10:36:52.415Z,-83
2022-08-10T10:39:24.129Z,-82
2022-08-10T10:42:04.980Z,-83
2022-08-10T10:45:15.431Z,-82
2022-08-10T10:48:17.564Z,-85
2022-08-10T10:51:14.065Z,-84
2022-08-10T10:53:57.244Z,-84
2022-08-10T10:56:49.334Z,-84
2022-08-10T10:59:56.906Z,-84
2022-08-10T11:02:36.668Z,-82
2022-08-10T11:05:27.417Z,-83
2022-08-10T11:08:05.073Z,-85
2022-08-10T11:10:46.913Z,-82
2022-08-10T11:14:26.771Z,-83
2022-08-10T11:16:49.892Z,-84
2022-08-10T11:20:02.271Z,-84
2022-08-10T11:22:59.541Z,-80
2022-08-10T11:25:26.072Z,-82
2022-08-10T11:28:03.872Z,-80
2022-08-10T11:30:50.589Z,-80
2022-08-10T11:34:03.845Z,-81
2022-08-10T11:36:36.460Z,-88
2022-08-10T11:39:22.909Z,-87
2022-08-10T11:42:09.205Z,-88
2022-08-10T11:44:51.258Z,-87
2022-08-10T11:47:25.730Z,-87
2022-08-10T11:50:04.415Z,-88
2022-08-10T11:52:43.433Z,-87
2022-08-10T11:55:18.937Z,-86
2022-08-10T11:57:54.604Z,-83
2022-08-10T12:00:23.080Z,-79
2022-08-10T12:02:54.898Z,-80
2022-08-10T12:05:51.629Z,-78
2022-08-10T12:10:07.865Z,-78
2022-08-10T12:11:09.055Z,-83
2022-08-10T12:14:10.675Z,-84
2022-08-10T12:16:39.168Z,-85
2022-08-10T12:19:27.648Z,-85
2022-08-10T12:22:06.291Z,-83
2022-08-10T12:24:51.686Z,-84
2022-08-10T12:27:33.649Z,-85
2022-08-10T12:30:07.161Z,-84
2022-08-10T12:32:49.090Z,-82
2022-08-10T12:35:26.483Z,-85
2022-08-10T12:38:15.047Z,-85
2022-08-10T12:40:55.233Z,-85
2022-08-10T12:44:06.393Z,-86
2022-08-10T12:46:35.050Z,-85
2022-08-10T12:49:26.044Z,-86
2022-08-10T12:52:28.268Z,-86
2022-08-10T12:54:57.929Z,-85
2022-08-10T12:57:25.925Z,-85
2022-08-10T12:59:57.994Z,-86
2022-08-10T13:02:28.396Z,-86
2022-08-10T13:04:58.220Z,-85
2022-08-10T13:08:24.551Z,-85
2022-08-10T13:10:21.463Z,-83
2022-08-10T13:12:52.291Z,-85
2022-08-10T13:15:49.538Z,-82
2022-08-10T13:18:18.250Z,-83
2022-08-10T13:20:50.789Z,-83
2022-08-10T13:23:24.526Z,-83
2022-08-10T13:25:52.406Z,-83
2022-08-10T13:28:35.581Z,-77
2022-08-10T13:31:17.007Z,-78
2022-08-10T13:34:40.600Z,-82
2022-08-10T13:36:49.741Z,-81
2022-08-10T13:39:22.117Z,-82
2022-08-10T13:41:53.156Z,-81
2022-08-10T13:44:33.077Z,-79
2022-08-10T13:47:00.179Z,-77
2022-08-10T13:49:29.796Z,-78
2022-08-10T13:51:58.511Z,-79
2022-08-10T13:54:29.281Z,-78
2022-08-10T13:56:57.960Z,-78
2022-08-10T14:00:37.464Z,-79
2022-08-10T14:02:25.060Z,-79
2022-08-10T14:04:55.045Z,-80
2022-08-10T14:07:22.947Z,-80
2022-08-10T14:09:51.496Z,-78
2022-08-10T14:12:19.716Z,-78
2022-08-10T14:15:00.350Z,-79
2022-08-10T14:17:28.240Z,-80
2022-08-10T14:19:59.794Z,-80
2022-08-10T14:22:33.557Z,-77
2022-08-10T14:25:27.754Z,-78
2022-08-10T14:28:02.975Z,-78
2022-08-10T14:30:34.443Z,-87
2022-08-10T14:33:04.971Z,-84
2022-08-10T14:36:20.553Z,-84
2022-08-10T14:38:31.157Z,-84
2022-08-10T14:41:00.775Z,-85
2022-08-10T14:43:39.651Z,-83
2022-08-10T14:46:21.024Z,-84
2022-08-10T14:48:52.313Z,-84
2022-08-10T14:51:25.872Z,-83
2022-08-10T14:53:56.172Z,-84
2022-08-10T14:56:29.901Z,-84
2022-08-10T14:59:07.080Z,-84
2022-08-10T15:01:59.817Z,-83
2022-08-10T15:04:30.524Z,-84
2022-08-10T15:07:03.102Z,-84
2022-08-10T15:09:59.248Z,-84
2022-08-10T15:12:26.404Z,-85
2022-08-10T15:14:58.524Z,-82
2022-08-10T15:17:35.163Z,-83
2022-08-10T15:20:13.570Z,-84
2022-08-10T15:22:49.890Z,-80
2022-08-10T15:25:24.820Z,-83
2022-08-10T15:28:06.562Z,-81
2022-08-10T15:30:44.050Z,-82
2022-08-10T15:34:04.452Z,-86
2022-08-10T15:37:35.937Z,-82
2022-08-10T15:40:21.253Z,-82
2022-08-10T15:42:34.458Z,-86
2022-08-10T15:45:01.665Z,-84
2022-08-10T15:47:50.057Z,-83
2022-08-10T15:50:28.816Z,-82
2022-08-10T15:53:02.813Z,-83
2022-08-10T15:55:47.313Z,-82
2022-08-10T15:58:30.289Z,-83
2022-08-10T16:02:12.945Z,-63
2022-08-10T16:04:13.381Z,-62
2022-08-10T16:06:44.912Z,-63
2022-08-10T16:10:23.637Z,-63
2022-08-10T16:12:29.253Z,-63
2022-08-10T16:15:04.536Z,-64
2022-08-10T16:17:54.573Z,-63
2022-08-10T16:20:31.343Z,-64
2022-08-10T16:23:01.671Z,-63
2022-08-10T16:25:48.166Z,-64
2022-08-10T16:28:23.394Z,-64
2022-08-10T16:30:54.165Z,-63
2022-08-10T16:33:53.644Z,-63
2022-08-10T16:36:17.589Z,-63
2022-08-10T16:38:47.165Z,-65
2022-08-10T16:41:52.084Z,-65
2022-08-10T16:44:04.125Z,-66
2022-08-10T16:46:32.061Z,-65
2022-08-10T16:49:01.248Z,-63
2022-08-10T16:51:28.272Z,-62
2022-08-10T16:53:59.726Z,-61
2022-08-10T16:56:34.309Z,-62
2022-08-10T16:59:21.152Z,-62
2022-08-10T17:01:53.741Z,-61
2022-08-10T17:04:23.518Z,-61
2022-08-10T17:06:57.032Z,-62
2022-08-10T17:09:28.740Z,-60
2022-08-10T17:11:58.476Z,-61
2022-08-10T17:14:29.260Z,-62
2022-08-10T17:17:21.130Z,-63
2022-08-10T17:19:48.988Z,-62
2022-08-10T17:22:20.852Z,-61
2022-08-10T17:24:57.040Z,-62
2022-08-10T17:28:05.678Z,-62
2022-08-10T17:30:33.991Z,-62
2022-08-10T17:33:12.531Z,-65
2022-08-10T17:35:42.392Z,-66
2022-08-10T17:38:10.807Z,-68
2022-08-10T17:40:49.732Z,-69
2022-08-10T17:43:46.584Z,-67
2022-08-10T17:46:10.729Z,-63
2022-08-10T17:48:39.967Z,-68
2022-08-10T17:51:15.366Z,-64
2022-08-10T17:53:49.536Z,-65
2022-08-10T17:56:19.544Z,-66
2022-08-10T17:58:50.370Z,-68
2022-08-10T18:01:41.104Z,-63
2022-08-10T18:04:18.059Z,-66
2022-08-10T18:06:52.353Z,-65
2022-08-10T18:09:30.673Z,-65
2022-08-10T18:12:01.829Z,-65
2022-08-10T18:14:33.145Z,-66
2022-08-10T18:17:07.402Z,-64
2022-08-10T18:19:35.099Z,-64
2022-08-10T18:22:03.092Z,-64
2022-08-10T18:24:30.389Z,-65
2022-08-10T18:27:01.746Z,-64
2022-08-10T18:29:30.801Z,-64
2022-08-10T18:32:03.195Z,-63
2022-08-10T18:34:32.773Z,-66
2022-08-10T18:37:02.853Z,-65
2022-08-10T18:39:33.916Z,-65
2022-08-10T18:42:12.467Z,-65
2022-08-10T18:44:52.092Z,-63
2022-08-10T18:47:28.388Z,-63
2022-08-10T18:50:09.065Z,-66
2022-08-10T18:52:38.200Z,-64
2022-08-10T18:55:35.486Z,-64
2022-08-10T18:58:43.859Z,-64
2022-08-10T19:01:17.688Z,-66
2022-08-10T19:04:09.473Z,-65
2022-08-10T19:06:45.273Z,-66
2022-08-10T19:10:03.058Z,-65
2022-08-10T19:12:54.091Z,-67
2022-08-10T19:15:29.813Z,-66
2022-08-10T19:18:06.618Z,-64
2022-08-10T19:20:35.384Z,-62
2022-08-10T19:23:29.830Z,-65
2022-08-10T19:26:38.203Z,-64
2022-08-10T19:30:12.059Z,-63
2022-08-10T19:32:21.490Z,-62
2022-08-10T19:35:03.140Z,-62
2022-08-10T19:37:36.007Z,-62
2022-08-10T19:40:21.583Z,-63
2022-08-10T19:43:20.562Z,-63
2022-08-10T19:46:04.492Z,-63
2022-08-10T19:48:34.183Z,-62
2022-08-10T19:51:16.561Z,-65
2022-08-10T19:54:13.910Z,-64
2022-08-10T19:56:52.580Z,-64
2022-08-10T20:00:14.998Z,-64
2022-08-10T20:02:26.349Z,-61
2022-08-10T20:05:12.045Z,-61
2022-08-10T20:07:50.949Z,-61
2022-08-10T20:10:31.470Z,-64
2022-08-10T20:13:14.869Z,-63
2022-08-10T20:15:51.789Z,-64
2022-08-10T20:18:41.120Z,-62
2022-08-10T20:21:14.631Z,-61
2022-08-10T20:24:08.705Z,-61
2022-08-10T20:26:48.038Z,-60
2022-08-10T20:29:57.219Z,-64
2022-08-10T20:32:19.327Z,-63
2022-08-10T20:34:50.622Z,-62
2022-08-10T20:38:03.137Z,-62
2022-08-10T20:40:38.831Z,-60
2022-08-10T20:43:24.370Z,-65
2022-08-10T20:46:18.330Z,-60
2022-08-10T20:48:55.300Z,-62
2022-08-10T20:51:59.369Z,-64
2022-08-10T20:54:15.483Z,-62
2022-08-10T20:57:54.646Z,-61
2022-08-10T21:00:10.903Z,-63
2022-08-10T21:03:13.527Z,-62
2022-08-10T21:05:59.846Z,-62
2022-08-10T21:08:56.095Z,-63
2022-08-10T21:11:57.814Z,-63
2022-08-10T21:15:01.985Z,-63
2022-08-10T21:17:55.082Z,-63
2022-08-10T21:20:47.501Z,-62
2022-08-10T21:23:30.410Z,-63
2022-08-10T21:26:09.427Z,-62
2022-08-10T21:28:49.996Z,-61
2022-08-10T21:31:32.187Z,-64
2022-08-10T21:34:32.706Z,-63
2022-08-10T21:37:07.762Z,-63
2022-08-10T21:40:04.576Z,-63
2022-08-10T21:43:25.181Z,-62
2022-08-10T21:46:29.622Z,-62
2022-08-10T21:49:24.507Z,-63
2022-08-10T21:52:38.216Z,-63
2022-08-10T21:55:57.129Z,-62
2022-08-10T21:58:52.755Z,-63
2022-08-10T22:01:51.446Z,-63
2022-08-10T22:04:38.497Z,-62
2022-08-10T22:07:29.139Z,-63
2022-08-10T22:10:25.586Z,-62
2022-08-10T22:13:13.495Z,-62
2022-08-10T22:16:11.476Z,-63
2022-08-10T22:19:03.597Z,-62
2022-08-10T22:22:19.938Z,-62
2022-08-10T22:25:29.716Z,-63
2022-08-10T22:28:18.130Z,-62
2022-08-10T22:31:31.853Z,-62
2022-08-10T22:34:48.931Z,-61
2022-08-10T22:37:49.502Z,-62
2022-08-10T22:40:39.789Z,-62
2022-08-10T22:43:33.533Z,-62
2022-08-10T22:46:25.148Z,-62
2022-08-10T22:49:01.263Z,-63
2022-08-10T22:51:47.715Z,-66
2022-08-10T22:54:55.453Z,-62
2022-08-10T22:57:40.873Z,-63
2022-08-10T23:00:31.268Z,-63
2022-08-10T23:03:07.602Z,-63
2022-08-10T23:05:42.290Z,-63
2022-08-10T23:08:30.464Z,-62
2022-08-10T23:11:03.029Z,-61
2022-08-10T23:13:35.984Z,-62
2022-08-10T23:16:40.939Z,-62
2022-08-10T23:19:18.741Z,-63
2022-08-10T23:22:11.589Z,-63
2022-08-10T23:24:42.973Z,-62
2022-08-10T23:27:37.595Z,-62
2022-08-10T23:30:09.438Z,-61
2022-08-10T23:32:40.822Z,-62
2022-08-10T23:36:12.947Z,-63
2022-08-10T23:38:01.125Z,-62
2022-08-10T23:40:28.748Z,-63
2022-08-10T23:42:56.497Z,-61
2022-08-10T23:45:28.886Z,-62
2022-08-10T23:48:20.210Z,-62
2022-08-10T23:50:59.891Z,-61
2022-08-10T23:53:30.303Z,-62
2022-08-10T23:56:15.563Z,-62
2022-08-10T23:58:45.539Z,-62
